createdAt,value
2019-05-21T00:02:25.698Z,97283.82
2019-05-21T00:04:54.503Z,97269.03
2019-05-21T00:07:23.240Z,97277.52
2019-05-21T00:09:52.010Z,97269.34
2019-05-21T00:12:20.727Z,97270.59
2019-05-21T00:14:49.484Z,97258.89
2019-05-21T00:17:18.301Z,97265.70
2019-05-21T00:19:47.109Z,97263.02
2019-05-21T00:22:15.828Z,97261.75
2019-05-21T00:24:44.740Z,97267.65
2019-05-21T00:27:13.495Z,97268.48
2019-05-21T00:30:18.586Z,97267.13
2019-05-21T00:33:23.789Z,97267.25
2019-05-21T00:36:30.137Z,97275.84
2019-05-21T00:39:35.478Z,97276.98
2019-05-21T00:42:03.146Z,97270.13
2019-05-21T00:44:35.263Z,97273.03
2019-05-21T00:47:05.192Z,97269.42
2019-05-21T00:49:34.019Z,97269.31
2019-05-21T00:52:08.174Z,97267.02
2019-05-21T00:54:33.526Z,97274.29
2019-05-21T00:57:02.321Z,97266.73
2019-05-21T00:59:31.148Z,97267.56
2019-05-21T01:01:59.915Z,97267.56
2019-05-21T01:04:28.663Z,97260.50
2019-05-21T01:06:57.405Z,97262.58
2019-05-21T01:09:26.506Z,97271.60
2019-05-21T01:11:55.241Z,97274.80
2019-05-21T01:14:23.979Z,97266.00
2019-05-21T01:16:52.779Z,97267.03
2019-05-21T01:19:21.527Z,97271.47
2019-05-21T01:21:50.361Z,97270.67
2019-05-21T01:24:19.175Z,97271.07
2019-05-21T01:26:47.926Z,97270.45
2019-05-21T01:29:16.739Z,97262.58
2019-05-21T01:31:45.491Z,97272.23
2019-05-21T01:34:14.219Z,97272.13
2019-05-21T01:36:42.971Z,97273.34
2019-05-21T01:39:11.768Z,97275.84
2019-05-21T01:41:40.547Z,97280.80
2019-05-21T01:44:09.359Z,97291.13
2019-05-21T01:46:38.147Z,97285.05
2019-05-21T01:49:06.884Z,97288.14
2019-05-21T01:51:35.781Z,97285.15
2019-05-21T01:54:04.800Z,97288.27
2019-05-21T01:56:33.615Z,97285.45
2019-05-21T01:59:02.367Z,97282.67
2019-05-21T02:01:31.461Z,97278.20
2019-05-21T02:04:00.196Z,97284.10
2019-05-21T02:06:28.948Z,97287.83
2019-05-21T02:08:57.672Z,97289.79
2019-05-21T02:11:26.418Z,97285.98
2019-05-21T02:13:55.172Z,97293.02
2019-05-21T02:16:23.916Z,97287.84
2019-05-21T02:18:52.743Z,97298.30
2019-05-21T02:21:21.577Z,97288.67
2019-05-21T02:23:50.585Z,97294.36
2019-05-21T02:26:19.401Z,97300.05
2019-05-21T02:28:48.163Z,97291.25
2019-05-21T02:31:16.916Z,97295.92
2019-05-21T02:33:45.866Z,97310.08
2019-05-21T02:36:14.626Z,97299.63
2019-05-21T02:38:43.571Z,97313.73
2019-05-21T02:41:12.436Z,97311.04
2019-05-21T02:43:41.493Z,97314.55
2019-05-21T02:46:10.287Z,97306.98
2019-05-21T02:48:39.018Z,97312.98
2019-05-21T02:51:07.762Z,97313.59
2019-05-21T02:53:36.499Z,97313.40
2019-05-21T02:56:05.325Z,97312.88
2019-05-21T02:58:34.133Z,97319.28
2019-05-21T03:01:12.512Z,97322.94
2019-05-21T03:03:41.323Z,97329.05
2019-05-21T03:06:14.168Z,97326.66
2019-05-21T03:08:43.527Z,97321.16
2019-05-21T03:11:12.273Z,97323.34
2019-05-21T03:13:41.024Z,97324.98
2019-05-21T03:16:09.744Z,97326.36
2019-05-21T03:18:38.486Z,97322.50
2019-05-21T03:21:07.359Z,97325.72
2019-05-21T03:23:36.173Z,97330.69
2019-05-21T03:26:05.045Z,97337.83
2019-05-21T03:28:33.850Z,97338.63
2019-05-21T03:31:02.565Z,97336.78
2019-05-21T03:33:31.433Z,97342.05
2019-05-21T03:36:00.173Z,97344.36
2019-05-21T03:38:28.938Z,97350.13
2019-05-21T03:40:57.698Z,97354.08
2019-05-21T03:43:26.501Z,97358.72
2019-05-21T03:45:55.233Z,97354.67
2019-05-21T03:48:24.088Z,97357.18
2019-05-21T03:50:52.905Z,97355.94
2019-05-21T03:53:21.670Z,97356.97
2019-05-21T03:55:50.435Z,97357.78
2019-05-21T03:58:19.191Z,97357.98
2019-05-21T04:00:48.294Z,97344.14
2019-05-21T04:03:17.052Z,97348.78
2019-05-21T04:05:45.872Z,97350.34
2019-05-21T04:08:14.620Z,97355.61
2019-05-21T04:10:43.429Z,97364.63
2019-05-21T04:13:12.515Z,97354.17
2019-05-21T04:16:06.710Z,97359.46
2019-05-21T04:18:43.298Z,97357.70
2019-05-21T04:21:12.095Z,97370.93
2019-05-21T04:23:40.878Z,97370.41
2019-05-21T04:26:09.601Z,97362.13
2019-05-21T04:28:38.458Z,97360.17
2019-05-21T04:31:07.551Z,97361.61
2019-05-21T04:33:36.344Z,97365.57
2019-05-21T04:36:05.356Z,97365.25
2019-05-21T04:38:34.215Z,97377.38
2019-05-21T04:41:03.122Z,97374.47
2019-05-21T04:43:31.880Z,97379.43
2019-05-21T04:46:00.860Z,97382.55
2019-05-21T04:48:29.632Z,97383.97
2019-05-21T04:50:58.533Z,97388.66
2019-05-21T04:53:27.370Z,97394.23
2019-05-21T04:55:56.096Z,97390.69
2019-05-21T04:58:24.838Z,97387.83
2019-05-21T05:00:53.711Z,97395.37
2019-05-21T05:03:22.605Z,97391.55
2019-05-21T05:05:51.413Z,97395.16
2019-05-21T05:08:20.226Z,97401.16
2019-05-21T05:10:49.495Z,97401.70
2019-05-21T05:13:18.282Z,97405.08
2019-05-21T05:15:47.010Z,97423.09
2019-05-21T05:18:16.047Z,97420.00
2019-05-21T05:20:44.771Z,97424.23
2019-05-21T05:23:13.551Z,97423.41
2019-05-21T05:25:42.351Z,97427.33
2019-05-21T05:28:11.106Z,97444.84
2019-05-21T05:30:39.996Z,97431.36
2019-05-21T05:33:08.955Z,97436.67
2019-05-21T05:35:37.797Z,97436.14
2019-05-21T05:38:06.582Z,97444.44
2019-05-21T05:40:35.331Z,97442.03
2019-05-21T05:43:04.396Z,97448.45
2019-05-21T05:45:33.533Z,97445.34
2019-05-21T05:48:02.341Z,97454.10
2019-05-21T05:50:34.656Z,97457.61
2019-05-21T05:53:03.462Z,97459.58
2019-05-21T05:55:32.293Z,97458.66
2019-05-21T05:58:01.122Z,97462.84
2019-05-21T06:00:30.136Z,97466.20
2019-05-21T06:02:58.951Z,97471.06
2019-05-21T06:05:27.932Z,97467.60
2019-05-21T06:08:00.074Z,97468.48
2019-05-21T06:10:28.516Z,97470.45
2019-05-21T06:12:57.278Z,97472.41
2019-05-21T06:15:26.138Z,97478.93
2019-05-21T06:17:55.042Z,97477.80
2019-05-21T06:20:24.394Z,97484.77
2019-05-21T06:22:53.255Z,97489.28
2019-05-21T06:25:22.151Z,97483.83
2019-05-21T06:27:50.928Z,97488.55
2019-05-21T06:30:19.890Z,97490.35
2019-05-21T06:32:48.635Z,97498.63
2019-05-21T06:35:17.881Z,97498.06
2019-05-21T06:37:46.614Z,97495.58
2019-05-21T06:40:16.829Z,97507.38
2019-05-21T06:42:45.600Z,97506.39
2019-05-21T06:45:15.016Z,97511.36
2019-05-21T06:47:43.805Z,97512.60
2019-05-21T06:50:12.799Z,97517.11
2019-05-21T06:52:41.584Z,97525.44
2019-05-21T06:55:11.306Z,97529.16
2019-05-21T06:57:40.174Z,97540.23
2019-05-21T07:00:10.816Z,97539.77
2019-05-21T07:02:39.568Z,97537.48
2019-05-21T07:05:08.707Z,97543.42
2019-05-21T07:07:37.728Z,97545.45
2019-05-21T07:10:07.202Z,97546.49
2019-05-21T07:12:36.491Z,97539.00
2019-05-21T07:15:06.163Z,97546.23
2019-05-21T07:17:34.974Z,97548.09
2019-05-21T07:20:04.001Z,97555.97
2019-05-21T07:22:32.823Z,97549.91
2019-05-21T07:25:01.635Z,97553.05
2019-05-21T07:27:30.340Z,97561.23
2019-05-21T07:29:59.167Z,97566.20
2019-05-21T07:32:28.054Z,97574.17
2019-05-21T07:34:56.956Z,97583.85
2019-05-21T07:37:25.670Z,97586.06
2019-05-21T07:39:54.413Z,97596.42
2019-05-21T07:42:23.144Z,97593.41
2019-05-21T07:44:51.887Z,97596.63
2019-05-21T07:47:20.607Z,97599.23
2019-05-21T07:49:49.356Z,97604.82
2019-05-21T07:52:18.348Z,97601.86
2019-05-21T07:54:47.168Z,97608.34
2019-05-21T07:57:15.901Z,97610.72
2019-05-21T07:59:44.687Z,97624.76
2019-05-21T08:02:13.426Z,97623.21
2019-05-21T08:04:42.206Z,97625.72
2019-05-21T08:07:10.941Z,97629.06
2019-05-21T08:09:40.141Z,97628.00
2019-05-21T08:12:27.861Z,97631.95
2019-05-21T08:14:39.407Z,97642.08
2019-05-21T08:17:08.148Z,97641.97
2019-05-21T08:19:36.870Z,97641.68
2019-05-21T08:22:05.639Z,97645.56
2019-05-21T08:24:34.362Z,97648.72
2019-05-21T08:27:03.413Z,97646.98
2019-05-21T08:29:32.125Z,97651.95
2019-05-21T08:32:00.862Z,97653.37
2019-05-21T08:34:29.598Z,97662.23
2019-05-21T08:36:58.434Z,97659.08
2019-05-21T08:39:29.071Z,97658.34
2019-05-21T08:41:58.076Z,97662.94
2019-05-21T08:44:26.820Z,97657.66
2019-05-21T08:46:55.614Z,97663.30
2019-05-21T08:49:24.404Z,97665.48
2019-05-21T08:51:53.151Z,97671.27
2019-05-21T08:54:40.900Z,97674.34
2019-05-21T08:57:09.711Z,97678.19
2019-05-21T08:59:38.444Z,97679.19
2019-05-21T09:02:07.452Z,97684.79
2019-05-21T09:04:45.858Z,97688.02
2019-05-21T09:07:07.031Z,97684.66
2019-05-21T09:09:49.461Z,97687.47
2019-05-21T09:12:06.363Z,97694.47
2019-05-21T09:14:35.185Z,97702.54
2019-05-21T09:17:04.249Z,97698.03
2019-05-21T09:19:36.159Z,97701.88
2019-05-21T09:22:03.532Z,97709.19
2019-05-21T09:24:32.348Z,97712.81
2019-05-21T09:27:01.110Z,97712.17
2019-05-21T09:29:29.848Z,97722.78
2019-05-21T09:31:58.583Z,97718.30
2019-05-21T09:34:27.368Z,97721.67
2019-05-21T09:36:56.160Z,97724.95
2019-05-21T09:39:24.899Z,97725.98
2019-05-21T09:41:53.647Z,97727.75
2019-05-21T09:44:22.553Z,97735.11
2019-05-21T09:46:52.378Z,97731.44
2019-05-21T09:49:21.180Z,97727.64
2019-05-21T09:51:50.188Z,97737.09
2019-05-21T09:54:18.987Z,97732.49
2019-05-21T09:56:47.735Z,97740.36
2019-05-21T09:59:33.916Z,97739.42
2019-05-21T10:02:07.079Z,97741.88
2019-05-21T10:04:36.194Z,97743.96
2019-05-21T10:07:05.438Z,97753.59
2019-05-21T10:09:34.322Z,97745.36
2019-05-21T10:12:03.512Z,97766.03
2019-05-21T10:14:34.237Z,97755.80
2019-05-21T10:17:03.364Z,97762.08
2019-05-21T10:19:32.421Z,97769.46
2019-05-21T10:22:01.218Z,97768.16
2019-05-21T10:24:29.916Z,97768.77
2019-05-21T10:26:58.644Z,97772.03
2019-05-21T10:29:27.377Z,97776.61
2019-05-21T10:31:56.224Z,97776.25
2019-05-21T10:34:25.018Z,97783.31
2019-05-21T10:36:54.155Z,97778.50
2019-05-21T10:39:23.000Z,97777.73
2019-05-21T10:41:51.734Z,97789.61
2019-05-21T10:44:20.582Z,97793.88
2019-05-21T10:46:49.545Z,97796.72
2019-05-21T10:49:18.293Z,97808.70
2019-05-21T10:51:47.251Z,97805.78
2019-05-21T10:54:16.002Z,97815.91
2019-05-21T10:56:48.336Z,97811.20
2019-05-21T10:59:15.389Z,97821.80
2019-05-21T11:02:09.583Z,97825.20
2019-05-21T11:04:45.456Z,97815.63
2019-05-21T11:07:15.807Z,97821.31
2019-05-21T11:09:44.892Z,97823.58
2019-05-21T11:12:13.968Z,97824.05
2019-05-21T11:14:42.790Z,97834.81
2019-05-21T11:17:12.822Z,97858.27
2019-05-21T11:19:41.808Z,97839.56
2019-05-21T11:22:10.663Z,97838.89
2019-05-21T11:24:39.403Z,97851.08
2019-05-21T11:27:08.202Z,97842.17
2019-05-21T11:29:37.557Z,97842.17
2019-05-21T11:32:06.530Z,97846.13
2019-05-21T11:34:35.486Z,97842.41
2019-05-21T11:37:04.608Z,97853.81
2019-05-21T11:39:33.502Z,97862.47
2019-05-21T11:42:02.218Z,97859.19
2019-05-21T11:44:31.064Z,97856.66
2019-05-21T11:47:00.076Z,97858.59
2019-05-21T11:49:29.129Z,97866.58
2019-05-21T11:51:57.850Z,97861.28
2019-05-21T11:54:26.624Z,97864.17
2019-05-21T11:56:55.446Z,97870.00
2019-05-21T11:59:24.180Z,97873.40
2019-05-21T12:01:52.969Z,97871.89
2019-05-21T12:04:21.728Z,97877.34
2019-05-21T12:06:50.546Z,97877.80
2019-05-21T12:09:19.322Z,97883.16
2019-05-21T12:11:48.036Z,97878.17
2019-05-21T12:14:16.753Z,97886.44
2019-05-21T12:16:45.463Z,97895.41
2019-05-21T12:19:14.192Z,97891.63
2019-05-21T12:21:42.892Z,97891.25
2019-05-21T12:24:11.642Z,97903.27
2019-05-21T12:26:40.355Z,97907.18
2019-05-21T12:29:09.079Z,97895.97
2019-05-21T12:31:37.782Z,97906.52
2019-05-21T12:34:06.818Z,97905.00
2019-05-21T12:36:35.572Z,97913.32
2019-05-21T12:39:14.121Z,97913.95
2019-05-21T12:41:36.401Z,97907.34
2019-05-21T12:44:05.206Z,97920.73
2019-05-21T12:46:33.914Z,97920.05
2019-05-21T12:49:02.678Z,97918.04
2019-05-21T12:51:31.510Z,97927.86
2019-05-21T12:54:00.241Z,97927.29
2019-05-21T12:56:28.964Z,97927.70
2019-05-21T12:59:00.668Z,97928.11
2019-05-21T13:01:28.846Z,97941.56
2019-05-21T13:03:57.560Z,97932.34
2019-05-21T13:06:26.309Z,97937.89
2019-05-21T13:08:55.055Z,97931.63
2019-05-21T13:11:24.040Z,97937.52
2019-05-21T13:13:52.763Z,97946.88
2019-05-21T13:16:21.548Z,97942.97
2019-05-21T13:18:50.352Z,97943.23
2019-05-21T13:21:19.100Z,97950.42
2019-05-21T13:23:47.836Z,97966.05
2019-05-21T13:26:16.713Z,97956.28
2019-05-21T13:28:45.483Z,97966.09
2019-05-21T13:31:14.285Z,97962.83
2019-05-21T13:33:43.131Z,97963.87
2019-05-21T13:36:11.877Z,97972.23
2019-05-21T13:38:40.594Z,97969.63
2019-05-21T13:41:09.791Z,97970.44
2019-05-21T13:43:38.510Z,97979.05
2019-05-21T13:46:07.247Z,97986.45
2019-05-21T13:48:36.042Z,97980.56
2019-05-21T13:51:05.320Z,97981.45
2019-05-21T13:53:34.157Z,97985.96
2019-05-21T13:56:02.945Z,97981.35
2019-05-21T13:58:31.659Z,97987.50
2019-05-21T14:01:00.454Z,97990.45
2019-05-21T14:03:29.233Z,97992.06
2019-05-21T14:05:58.025Z,97995.32
2019-05-21T14:08:26.747Z,97998.08
2019-05-21T14:10:55.557Z,98006.45
2019-05-21T14:13:24.468Z,97995.75
2019-05-21T14:15:53.238Z,98004.53
2019-05-21T14:18:21.943Z,98002.07
2019-05-21T14:20:50.650Z,98003.95
2019-05-21T14:23:19.426Z,98008.62
2019-05-21T14:25:48.135Z,98009.30
2019-05-21T14:28:16.958Z,98017.05
2019-05-21T14:30:45.755Z,98009.08
2019-05-21T14:33:14.656Z,98020.29
2019-05-21T14:35:43.442Z,98021.31
2019-05-21T14:38:12.208Z,98022.07
2019-05-21T14:40:41.009Z,98021.55
2019-05-21T14:43:09.841Z,98019.51
2019-05-21T14:45:38.611Z,98022.59
2019-05-21T14:48:07.491Z,98022.98
2019-05-21T14:50:36.392Z,98022.58
2019-05-21T14:53:05.202Z,98043.00
2019-05-21T14:55:33.915Z,98027.52
2019-05-21T14:58:02.654Z,98035.94
2019-05-21T15:00:36.593Z,98030.72
2019-05-21T15:03:05.710Z,98039.27
2019-05-21T15:05:35.297Z,98038.77
2019-05-21T15:08:05.053Z,98044.80
2019-05-21T15:10:47.339Z,98044.37
2019-05-21T15:13:05.929Z,98042.24
2019-05-21T15:15:35.896Z,98043.72
2019-05-21T15:18:05.199Z,98045.95
2019-05-21T15:20:48.817Z,98049.65
2019-05-21T15:23:17.630Z,98047.02
2019-05-21T15:25:46.374Z,98046.41
2019-05-21T15:28:15.109Z,98044.64
2019-05-21T15:30:43.931Z,98045.02
2019-05-21T15:33:12.774Z,98048.40
2019-05-21T15:35:41.568Z,98047.16
2019-05-21T15:38:10.311Z,98045.13
2019-05-21T15:40:39.154Z,98051.85
2019-05-21T15:43:08.979Z,98055.91
2019-05-21T15:45:37.862Z,98054.59
2019-05-21T15:48:06.819Z,98056.88
2019-05-21T15:50:35.698Z,98057.92
2019-05-21T15:53:04.582Z,98061.52
2019-05-21T15:55:33.376Z,98062.53
2019-05-21T15:58:02.163Z,98070.02
2019-05-21T16:00:31.031Z,98061.70
2019-05-21T16:02:59.905Z,98058.73
2019-05-21T16:05:29.468Z,98061.94
2019-05-21T16:07:58.698Z,98068.47
2019-05-21T16:10:27.737Z,98066.84
2019-05-21T16:12:56.459Z,98073.05
2019-05-21T16:15:25.260Z,98073.61
2019-05-21T16:17:53.986Z,98068.05
2019-05-21T16:20:23.120Z,98073.70
2019-05-21T16:22:52.079Z,98074.16
2019-05-21T16:25:20.990Z,98082.50
2019-05-21T16:27:49.706Z,98075.88
2019-05-21T16:30:19.044Z,98076.34
2019-05-21T16:32:47.860Z,98082.36
2019-05-21T16:35:17.230Z,98083.96
2019-05-21T16:37:46.039Z,98080.00
2019-05-21T16:40:15.412Z,98085.29
2019-05-21T16:42:44.140Z,98085.94
2019-05-21T16:45:13.854Z,98089.36
2019-05-21T16:47:46.166Z,98089.22
2019-05-21T16:50:13.401Z,98097.66
2019-05-21T16:52:42.101Z,98090.91
2019-05-21T16:55:10.973Z,98097.30
2019-05-21T16:57:39.810Z,98105.13
2019-05-21T17:00:09.590Z,98108.55
2019-05-21T17:02:38.308Z,98110.63
2019-05-21T17:05:07.398Z,98111.80
2019-05-21T17:07:36.182Z,98111.30
2019-05-21T17:10:05.434Z,98107.77
2019-05-21T17:12:34.209Z,98116.52
2019-05-21T17:15:02.945Z,98119.67
2019-05-21T17:17:31.861Z,98125.83
2019-05-21T17:20:00.601Z,98122.03
2019-05-21T17:22:29.374Z,98122.77
2019-05-21T17:24:58.351Z,98130.91
2019-05-21T17:27:27.185Z,98135.45
2019-05-21T17:29:55.995Z,98130.23
2019-05-21T17:32:24.959Z,98144.53
2019-05-21T17:34:53.916Z,98145.25
2019-05-21T17:37:23.146Z,98144.34
2019-05-21T17:39:51.919Z,98144.77
2019-05-21T17:42:20.805Z,98154.06
2019-05-21T17:44:49.674Z,98152.98
2019-05-21T17:47:18.756Z,98155.67
2019-05-21T17:49:47.665Z,98156.97
2019-05-21T17:52:16.418Z,98158.61
2019-05-21T17:54:56.314Z,98163.36
2019-05-21T17:57:15.875Z,98168.77
2019-05-21T17:59:44.796Z,98159.98
2019-05-21T18:02:14.093Z,98165.39
2019-05-21T18:04:43.742Z,98158.35
2019-05-21T18:07:13.904Z,98163.44
2019-05-21T18:09:42.993Z,98171.85
2019-05-21T18:12:13.656Z,98176.13
2019-05-21T18:14:42.785Z,98183.50
2019-05-21T18:17:15.727Z,98178.85
2019-05-21T18:19:45.881Z,98185.46
2019-05-21T18:22:18.106Z,98186.91
2019-05-21T18:24:48.705Z,98189.52
2019-05-21T18:27:17.760Z,98188.69
2019-05-21T18:29:46.604Z,98196.30
2019-05-21T18:32:15.481Z,98194.06
2019-05-21T18:34:44.364Z,98201.75
2019-05-21T18:37:13.121Z,98196.89
2019-05-21T18:39:41.864Z,98201.39
2019-05-21T18:42:21.814Z,98202.08
2019-05-21T18:44:41.489Z,98201.39
2019-05-21T18:47:10.252Z,98204.77
2019-05-21T18:49:39.162Z,98205.23
2019-05-21T18:52:07.912Z,98208.10
2019-05-21T18:54:37.096Z,98207.41
2019-05-21T18:57:06.650Z,98207.78
2019-05-21T18:59:35.442Z,98205.78
2019-05-21T19:02:05.740Z,98219.31
2019-05-21T19:04:36.398Z,98216.02
2019-05-21T19:07:05.402Z,98211.48
2019-05-21T19:09:34.289Z,98221.53
2019-05-21T19:12:03.515Z,98228.91
2019-05-21T19:14:32.357Z,98226.40
2019-05-21T19:17:01.249Z,98238.30
2019-05-21T19:19:30.193Z,98239.83
2019-05-21T19:21:59.005Z,98251.61
2019-05-21T19:24:27.825Z,98253.77
2019-05-21T19:26:57.201Z,98257.61
2019-05-21T19:29:26.118Z,98266.02
2019-05-21T19:31:54.876Z,98256.95
2019-05-21T19:34:23.618Z,98265.63
2019-05-21T19:36:52.422Z,98264.50
2019-05-21T19:39:21.327Z,98269.19
2019-05-21T19:41:50.087Z,98259.12
2019-05-21T19:44:18.864Z,98264.35
2019-05-21T19:46:47.723Z,98260.98
2019-05-21T19:49:16.625Z,98263.66
2019-05-21T19:51:45.370Z,98262.95
2019-05-21T19:54:14.343Z,98265.27
2019-05-21T19:56:43.288Z,98267.96
2019-05-21T19:59:12.674Z,98274.59
2019-05-21T20:01:41.608Z,98273.06
2019-05-21T20:04:11.528Z,98276.73
2019-05-21T20:06:40.813Z,98274.41
2019-05-21T20:09:14.589Z,98277.78
2019-05-21T20:11:43.937Z,98273.25
2019-05-21T20:14:12.854Z,98280.11
2019-05-21T20:16:42.924Z,98279.36
2019-05-21T20:19:14.059Z,98284.83
2019-05-21T20:21:43.379Z,98277.28
2019-05-21T20:24:12.462Z,98286.20
2019-05-21T20:26:42.703Z,98286.34
2019-05-21T20:29:12.657Z,98289.51
2019-05-21T20:31:41.642Z,98284.47
2019-05-21T20:34:11.494Z,98282.47
2019-05-21T20:36:40.963Z,98283.48
2019-05-21T20:39:12.469Z,98274.26
2019-05-21T20:41:42.041Z,98283.45
2019-05-21T20:44:14.333Z,98277.58
2019-05-21T20:46:43.810Z,98282.32
2019-05-21T20:49:14.271Z,98280.47
2019-05-21T20:51:43.078Z,98282.67
2019-05-21T20:54:13.557Z,98275.06
2019-05-21T20:56:42.544Z,98279.45
2019-05-21T20:59:11.466Z,98278.11
2019-05-21T21:01:41.342Z,98282.08
2019-05-21T21:04:10.503Z,98278.77
2019-05-21T21:06:40.385Z,98284.16
2019-05-21T21:09:10.338Z,98282.95
2019-05-21T21:11:40.101Z,98284.80
2019-05-21T21:14:18.118Z,98291.21
2019-05-21T21:16:42.542Z,98292.25
2019-05-21T21:19:11.888Z,98292.55
2019-05-21T21:21:41.844Z,98294.55
2019-05-21T21:24:10.776Z,98295.92
2019-05-21T21:26:40.123Z,98290.22
2019-05-21T21:29:10.604Z,98288.02
2019-05-21T21:31:39.585Z,98293.95
2019-05-21T21:34:08.834Z,98291.92
2019-05-21T21:36:37.844Z,98301.11
2019-05-21T21:39:07.864Z,98298.33
2019-05-21T21:41:38.535Z,98300.13
2019-05-21T21:44:07.906Z,98298.63
2019-05-21T21:46:37.349Z,98295.64
2019-05-21T21:49:06.180Z,98290.73
2019-05-21T21:51:35.494Z,98301.65
2019-05-21T21:54:05.082Z,98305.55
2019-05-21T21:56:33.817Z,98297.66
2019-05-21T21:59:02.564Z,98301.03
2019-05-21T22:01:49.155Z,98298.86
2019-05-21T22:04:21.102Z,98298.67
2019-05-21T22:06:50.245Z,98296.80
2019-05-21T22:09:28.934Z,98299.14
2019-05-21T22:11:58.180Z,98302.02
2019-05-21T22:14:28.099Z,98302.93
2019-05-21T22:16:57.193Z,98302.40
2019-05-21T22:19:26.899Z,98296.32
2019-05-21T22:21:56.064Z,98300.53
2019-05-21T22:24:25.090Z,98296.32
2019-05-21T22:26:54.434Z,98300.44
2019-05-21T22:29:23.298Z,98305.78
2019-05-21T22:31:52.612Z,98308.29
2019-05-21T22:34:21.965Z,98315.86
2019-05-21T22:36:50.728Z,98314.20
2019-05-21T22:39:23.945Z,98326.59
2019-05-21T22:41:52.967Z,98319.59
2019-05-21T22:44:21.713Z,98326.95
2019-05-21T22:46:50.722Z,98330.97
2019-05-21T22:49:19.781Z,98339.19
2019-05-21T22:51:48.614Z,98333.98
2019-05-21T22:54:17.429Z,98333.98
2019-05-21T22:56:46.274Z,98339.34
2019-05-21T22:59:15.000Z,98331.66
2019-05-21T23:01:44.310Z,98336.18
2019-05-21T23:04:13.280Z,98341.38
2019-05-21T23:06:42.023Z,98339.34
2019-05-21T23:09:10.853Z,98340.55
2019-05-21T23:11:39.598Z,98334.02
2019-05-21T23:14:08.342Z,98333.67
2019-05-21T23:16:37.940Z,98336.69
2019-05-21T23:19:08.650Z,98336.02
2019-05-21T23:21:37.399Z,98344.11
2019-05-21T23:24:13.108Z,98346.60
2019-05-21T23:26:42.739Z,98354.31
2019-05-21T23:29:11.734Z,98345.80
2019-05-21T23:31:40.552Z,98345.60
2019-05-21T23:34:10.395Z,98343.59
2019-05-21T23:36:40.816Z,98343.25
2019-05-21T23:39:13.634Z,98338.08
2019-05-21T23:41:45.184Z,98343.77
2019-05-21T23:44:14.390Z,98344.77
2019-05-21T23:46:43.316Z,98339.41
2019-05-21T23:49:12.122Z,98343.77
2019-05-21T23:51:41.371Z,98339.75
2019-05-21T23:54:10.918Z,98346.43
2019-05-21T23:56:39.831Z,98354.83
2019-05-21T23:59:08.558Z,98352.47
